sensor_id;sensor_type;location;lat;lon;timestamp;pressure;altitude;pressure_sealevel;temperature;humidity
15670;BME280;18524;45.190;5.732;2023-02-20T00:02:48;100365.53;;;12.06;80.24
15670;BME280;18524;45.190;5.732;2023-02-20T00:07:39;100364.66;;;11.93;80.65
15670;BME280;18524;45.190;5.732;2023-02-20T00:12:29;100369.56;;;11.85;80.32
15670;BME280;18524;45.190;5.732;2023-02-20T00:17:19;100371.84;;;11.77;81.33
15670;BME280;18524;45.190;5.732;2023-02-20T00:22:10;100364.03;;;11.89;80.58
15670;BME280;18524;45.190;5.732;2023-02-20T00:27:00;100353.31;;;11.93;80.27
15670;BME280;18524;45.190;5.732;2023-02-20T00:31:53;100369.19;;;11.64;81.67
15670;BME280;18524;45.190;5.732;2023-02-20T00:36:44;100358.22;;;11.57;81.87
15670;BME280;18524;45.190;5.732;2023-02-20T00:41:34;100360.16;;;11.68;81.89
15670;BME280;18524;45.190;5.732;2023-02-20T00:46:24;100368.56;;;11.73;81.83
15670;BME280;18524;45.190;5.732;2023-02-20T00:51:15;100361.00;;;11.69;82.49
15670;BME280;18524;45.190;5.732;2023-02-20T00:56:06;100360.69;;;11.73;82.07
15670;BME280;18524;45.190;5.732;2023-02-20T01:00:56;100360.13;;;11.55;82.93
15670;BME280;18524;45.190;5.732;2023-02-20T01:05:47;100358.44;;;11.54;83.14
15670;BME280;18524;45.190;5.732;2023-02-20T01:10:37;100357.22;;;11.46;83.68
15670;BME280;18524;45.190;5.732;2023-02-20T01:15:27;100363.16;;;11.35;84.74
15670;BME280;18524;45.190;5.732;2023-02-20T01:20:18;100361.59;;;11.59;83.81
15670;BME280;18524;45.190;5.732;2023-02-20T01:25:08;100348.38;;;11.74;82.07
15670;BME280;18524;45.190;5.732;2023-02-20T01:29:58;100345.44;;;11.66;82.79
15670;BME280;18524;45.190;5.732;2023-02-20T01:34:49;100349.63;;;11.68;82.90
15670;BME280;18524;45.190;5.732;2023-02-20T01:39:39;100345.75;;;11.74;82.59
15670;BME280;18524;45.190;5.732;2023-02-20T01:44:33;100348.38;;;11.74;82.71
15670;BME280;18524;45.190;5.732;2023-02-20T01:49:31;100354.00;;;11.82;82.25
15670;BME280;18524;45.190;5.732;2023-02-20T01:54:24;100341.91;;;11.79;82.41
15670;BME280;18524;45.190;5.732;2023-02-20T01:59:16;100349.38;;;11.85;82.01
15670;BME280;18524;45.190;5.732;2023-02-20T02:04:08;100351.66;;;11.77;82.68
15670;BME280;18524;45.190;5.732;2023-02-20T02:09:05;100345.22;;;11.69;83.08
15670;BME280;18524;45.190;5.732;2023-02-20T02:13:59;100335.97;;;11.76;83.10
15670;BME280;18524;45.190;5.732;2023-02-20T02:43:59;100305.41;;;11.48;84.78
15670;BME280;18524;45.190;5.732;2023-02-20T02:49:18;100305.72;;;11.43;85.65
15670;BME280;18524;45.190;5.732;2023-02-20T02:54:19;100301.28;;;11.31;86.04
15670;BME280;18524;45.190;5.732;2023-02-20T02:59:23;100288.44;;;11.53;84.98
15670;BME280;18524;45.190;5.732;2023-02-20T03:04:15;100293.69;;;11.53;84.33
15670;BME280;18524;45.190;5.732;2023-02-20T03:09:16;100296.50;;;11.50;84.84
15670;BME280;18524;45.190;5.732;2023-02-20T03:14:12;100292.44;;;11.59;84.27
15670;BME280;18524;45.190;5.732;2023-02-20T03:19:27;100303.09;;;11.43;84.96
15670;BME280;18524;45.190;5.732;2023-02-20T03:24:19;100300.44;;;11.57;84.43
15670;BME280;18524;45.190;5.732;2023-02-20T03:29:19;100309.94;;;11.46;85.01
15670;BME280;18524;45.190;5.732;2023-02-20T03:34:18;100308.97;;;11.34;85.98
15670;BME280;18524;45.190;5.732;2023-02-20T03:39:32;100312.00;;;11.28;86.64
15670;BME280;18524;45.190;5.732;2023-02-20T03:44:43;100321.44;;;11.31;85.84
15670;BME280;18524;45.190;5.732;2023-02-20T03:49:38;100318.69;;;11.19;86.09
15670;BME280;18524;45.190;5.732;2023-02-20T03:54:30;100318.31;;;11.11;87.18
15670;BME280;18524;45.190;5.732;2023-02-20T03:59:25;100326.66;;;11.18;86.78
15670;BME280;18524;45.190;5.732;2023-02-20T04:04:25;100323.56;;;11.11;86.89
15670;BME280;18524;45.190;5.732;2023-02-20T04:09:25;100332.13;;;11.01;87.15
15670;BME280;18524;45.190;5.732;2023-02-20T04:14:20;100323.22;;;11.03;87.49
15670;BME280;18524;45.190;5.732;2023-02-20T04:19:11;100316.91;;;11.06;86.73
15670;BME280;18524;45.190;5.732;2023-02-20T04:24:09;100314.28;;;10.79;87.79
15670;BME280;18524;45.190;5.732;2023-02-20T04:29:00;100319.41;;;10.80;88.73
15670;BME280;18524;45.190;5.732;2023-02-20T04:33:51;100318.88;;;10.61;89.60
15670;BME280;18524;45.190;5.732;2023-02-20T04:38:41;100317.44;;;10.70;89.14
15670;BME280;18524;45.190;5.732;2023-02-20T04:43:32;100309.88;;;10.79;88.66
15670;BME280;18524;45.190;5.732;2023-02-20T04:48:22;100320.16;;;10.68;89.39
15670;BME280;18524;45.190;5.732;2023-02-20T04:53:13;100322.88;;;10.67;89.78
15670;BME280;18524;45.190;5.732;2023-02-20T04:58:03;100319.81;;;10.60;89.06
15670;BME280;18524;45.190;5.732;2023-02-20T05:02:54;100329.19;;;10.50;89.73
15670;BME280;18524;45.190;5.732;2023-02-20T05:07:45;100322.44;;;10.46;90.04
15670;BME280;18524;45.190;5.732;2023-02-20T05:12:35;100321.69;;;10.44;90.63
15670;BME280;18524;45.190;5.732;2023-02-20T05:17:25;100319.69;;;10.33;90.34
15670;BME280;18524;45.190;5.732;2023-02-20T05:22:16;100313.81;;;10.29;90.15
15670;BME280;18524;45.190;5.732;2023-02-20T05:27:10;100311.09;;;10.31;90.38
15670;BME280;18524;45.190;5.732;2023-02-20T05:32:00;100311.09;;;10.01;92.43
15670;BME280;18524;45.190;5.732;2023-02-20T05:36:52;100301.88;;;10.10;92.27
15670;BME280;18524;45.190;5.732;2023-02-20T05:41:43;100302.16;;;10.19;91.84
15670;BME280;18524;45.190;5.732;2023-02-20T05:46:40;100302.84;;;10.23;91.39
15670;BME280;18524;45.190;5.732;2023-02-20T05:51:31;100300.81;;;9.98;92.67
15670;BME280;18524;45.190;5.732;2023-02-20T05:56:23;100296.31;;;10.00;92.54
15670;BME280;18524;45.190;5.732;2023-02-20T06:01:21;100298.75;;;9.89;93.02
15670;BME280;18524;45.190;5.732;2023-02-20T06:06:12;100299.78;;;9.86;92.68
15670;BME280;18524;45.190;5.732;2023-02-20T06:11:02;100298.94;;;9.86;91.50
15670;BME280;18524;45.190;5.732;2023-02-20T06:15:53;100303.44;;;9.98;90.03
15670;BME280;18524;45.190;5.732;2023-02-20T06:20:43;100306.06;;;9.98;89.62
15670;BME280;18524;45.190;5.732;2023-02-20T06:25:34;100315.47;;;9.72;91.33
15670;BME280;18524;45.190;5.732;2023-02-20T06:30:24;100319.53;;;9.62;91.01
15670;BME280;18524;45.190;5.732;2023-02-20T06:35:15;100314.88;;;9.67;91.23
15670;BME280;18524;45.190;5.732;2023-02-20T06:40:06;100319.44;;;9.33;93.12
15670;BME280;18524;45.190;5.732;2023-02-20T06:44:56;100325.91;;;9.42;92.67
15670;BME280;18524;45.190;5.732;2023-02-20T06:49:47;100334.78;;;9.39;92.58
15670;BME280;18524;45.190;5.732;2023-02-20T06:54:37;100334.03;;;9.37;92.57
15670;BME280;18524;45.190;5.732;2023-02-20T06:59:27;100336.03;;;9.48;92.06
15670;BME280;18524;45.190;5.732;2023-02-20T07:04:23;100340.28;;;9.35;92.26
15670;BME280;18524;45.190;5.732;2023-02-20T07:09:15;100345.53;;;9.35;92.94
15670;BME280;18524;45.190;5.732;2023-02-20T07:14:07;100348.91;;;9.37;93.28
15670;BME280;18524;45.190;5.732;2023-02-20T07:18:57;100353.63;;;9.46;92.28
15670;BME280;18524;45.190;5.732;2023-02-20T07:23:48;100353.41;;;9.65;89.82
15670;BME280;18524;45.190;5.732;2023-02-20T07:28:39;100355.88;;;9.68;88.58
15670;BME280;18524;45.190;5.732;2023-02-20T07:33:29;100349.44;;;9.74;88.47
15670;BME280;18524;45.190;5.732;2023-02-20T07:38:19;100364.41;;;9.56;89.05
15670;BME280;18524;45.190;5.732;2023-02-20T07:43:10;100360.41;;;9.64;89.07
15670;BME280;18524;45.190;5.732;2023-02-20T07:48:00;100354.16;;;9.97;86.97
15670;BME280;18524;45.190;5.732;2023-02-20T07:52:50;100360.81;;;10.02;85.67
15670;BME280;18524;45.190;5.732;2023-02-20T07:57:41;100359.59;;;10.24;84.47
15670;BME280;18524;45.190;5.732;2023-02-20T08:02:32;100357.84;;;10.09;85.31
15670;BME280;18524;45.190;5.732;2023-02-20T08:07:22;100358.38;;;10.29;83.81
15670;BME280;18524;45.190;5.732;2023-02-20T08:12:13;100361.31;;;10.09;84.29
15670;BME280;18524;45.190;5.732;2023-02-20T08:17:03;100363.63;;;9.99;85.18
15670;BME280;18524;45.190;5.732;2023-02-20T08:21:54;100356.78;;;10.27;84.93
15670;BME280;18524;45.190;5.732;2023-02-20T08:26:45;100351.75;;;10.81;82.06
15670;BME280;18524;45.190;5.732;2023-02-20T08:31:36;100348.78;;;11.41;79.54
15670;BME280;18524;45.190;5.732;2023-02-20T08:36:26;100349.84;;;11.38;78.56
15670;BME280;18524;45.190;5.732;2023-02-20T08:41:17;100352.78;;;11.61;77.49
15670;BME280;18524;45.190;5.732;2023-02-20T08:46:07;100337.81;;;11.88;76.26
15670;BME280;18524;45.190;5.732;2023-02-20T08:50:58;100340.06;;;11.94;75.59
15670;BME280;18524;45.190;5.732;2023-02-20T08:55:48;100332.31;;;12.31;74.66
15670;BME280;18524;45.190;5.732;2023-02-20T09:00:39;100328.81;;;12.56;73.30
15670;BME280;18524;45.190;5.732;2023-02-20T09:05:29;100323.88;;;12.51;72.10
15670;BME280;18524;45.190;5.732;2023-02-20T09:10:20;100317.97;;;12.47;72.71
15670;BME280;18524;45.190;5.732;2023-02-20T09:15:11;100314.13;;;12.90;70.38
15670;BME280;18524;45.190;5.732;2023-02-20T09:20:02;100313.19;;;13.27;68.92
15670;BME280;18524;45.190;5.732;2023-02-20T09:24:53;100304.31;;;13.52;67.74
15670;BME280;18524;45.190;5.732;2023-02-20T09:29:44;100302.75;;;13.50;67.35
15670;BME280;18524;45.190;5.732;2023-02-20T09:34:34;100292.31;;;13.83;65.70
15670;BME280;18524;45.190;5.732;2023-02-20T09:39:25;100284.47;;;13.70;65.82
15670;BME280;18524;45.190;5.732;2023-02-20T09:44:26;100284.31;;;13.96;64.54
15670;BME280;18524;45.190;5.732;2023-02-20T09:49:24;100284.88;;;13.77;64.95
15670;BME280;18524;45.190;5.732;2023-02-20T09:54:32;100279.41;;;13.91;64.23
15670;BME280;18524;45.190;5.732;2023-02-20T10:00:03;100273.16;;;14.03;62.64
15670;BME280;18524;45.190;5.732;2023-02-20T10:04:57;100275.78;;;14.50;60.35
15670;BME280;18524;45.190;5.732;2023-02-20T10:09:54;100278.59;;;14.13;61.93
15670;BME280;18524;45.190;5.732;2023-02-20T10:20:00;100252.19;;;14.91;59.48
15670;BME280;18524;45.190;5.732;2023-02-20T10:29:48;100235.31;;;15.68;56.64
15670;BME280;18524;45.190;5.732;2023-02-20T10:34:54;100226.06;;;16.04;55.57
15670;BME280;18524;45.190;5.732;2023-02-20T10:40:22;100211.59;;;16.08;54.99
15670;BME280;18524;45.190;5.732;2023-02-20T10:45:21;100209.22;;;16.45;53.45
15670;BME280;18524;45.190;5.732;2023-02-20T10:50:24;100214.66;;;16.74;52.92
15670;BME280;18524;45.190;5.732;2023-02-20T10:55:27;100194.16;;;17.05;51.35
15670;BME280;18524;45.190;5.732;2023-02-20T11:00:31;100195.69;;;17.27;50.97
15670;BME280;18524;45.190;5.732;2023-02-20T11:05:26;100184.81;;;17.49;49.89
15670;BME280;18524;45.190;5.732;2023-02-20T11:10:18;100190.59;;;17.81;48.99
15670;BME280;18524;45.190;5.732;2023-02-20T11:15:11;100175.63;;;18.27;48.04
15670;BME280;18524;45.190;5.732;2023-02-20T11:20:04;100186.25;;;18.27;47.88
15670;BME280;18524;45.190;5.732;2023-02-20T11:25:15;100172.25;;;17.98;47.73
15670;BME280;18524;45.190;5.732;2023-02-20T11:45:15;100124.31;;;19.51;44.82
15670;BME280;18524;45.190;5.732;2023-02-20T11:50:14;100107.34;;;20.12;43.85
15670;BME280;18524;45.190;5.732;2023-02-20T11:55:17;100095.81;;;20.54;42.12
15670;BME280;18524;45.190;5.732;2023-02-20T12:05:11;100087.16;;;20.68;41.53
15670;BME280;18524;45.190;5.732;2023-02-20T12:10:41;100074.69;;;20.93;40.54
15670;BME280;18524;45.190;5.732;2023-02-20T12:15:32;100067.00;;;21.06;40.31
15670;BME280;18524;45.190;5.732;2023-02-20T12:20:28;100067.66;;;21.00;40.57
15670;BME280;18524;45.190;5.732;2023-02-20T12:25:40;100069.16;;;21.03;40.41
15670;BME280;18524;45.190;5.732;2023-02-20T12:36:31;100047.34;;;20.99;41.13
15670;BME280;18524;45.190;5.732;2023-02-20T12:41:43;100037.84;;;20.97;40.82
15670;BME280;18524;45.190;5.732;2023-02-20T12:47:01;100023.19;;;20.92;40.61
15670;BME280;18524;45.190;5.732;2023-02-20T12:52:02;100029.53;;;20.51;41.07
15670;BME280;18524;45.190;5.732;2023-02-20T13:07:20;99998.66;;;20.24;42.17
15670;BME280;18524;45.190;5.732;2023-02-20T13:12:14;99987.66;;;20.11;42.11
15670;BME280;18524;45.190;5.732;2023-02-20T13:21:59;99973.63;;;19.50;42.76
15670;BME280;18524;45.190;5.732;2023-02-20T13:26:53;99974.63;;;19.15;43.38
15670;BME280;18524;45.190;5.732;2023-02-20T13:32:03;99967.63;;;18.44;44.95
15670;BME280;18524;45.190;5.732;2023-02-20T13:42:33;99947.25;;;18.27;45.67
15670;BME280;18524;45.190;5.732;2023-02-20T13:47:32;99943.44;;;18.12;45.79
15670;BME280;18524;45.190;5.732;2023-02-20T13:57:31;99937.22;;;18.03;45.95
15670;BME280;18524;45.190;5.732;2023-02-20T14:02:25;99932.38;;;17.99;46.91
15670;BME280;18524;45.190;5.732;2023-02-20T14:07:34;99920.25;;;17.96;46.57
15670;BME280;18524;45.190;5.732;2023-02-20T14:12:26;99921.44;;;18.02;47.11
15670;BME280;18524;45.190;5.732;2023-02-20T14:17:19;99896.94;;;18.08;47.13
15670;BME280;18524;45.190;5.732;2023-02-20T14:22:28;99910.22;;;18.08;46.60
15670;BME280;18524;45.190;5.732;2023-02-20T14:27:27;99905.84;;;17.99;47.13
15670;BME280;18524;45.190;5.732;2023-02-20T14:32:18;99902.81;;;17.94;46.94
15670;BME280;18524;45.190;5.732;2023-02-20T14:37:18;99893.19;;;17.93;46.51
15670;BME280;18524;45.190;5.732;2023-02-20T14:42:18;99893.09;;;17.85;46.94
15670;BME280;18524;45.190;5.732;2023-02-20T14:47:12;99878.44;;;17.80;47.25
15670;BME280;18524;45.190;5.732;2023-02-20T14:52:11;99873.25;;;17.89;47.13
15670;BME280;18524;45.190;5.732;2023-02-20T14:57:02;99871.88;;;17.85;46.84
15670;BME280;18524;45.190;5.732;2023-02-20T15:02:00;99863.97;;;17.75;46.88
15670;BME280;18524;45.190;5.732;2023-02-20T15:06:52;99865.41;;;17.69;47.25
15670;BME280;18524;45.190;5.732;2023-02-20T15:11:56;99861.63;;;17.72;47.54
15670;BME280;18524;45.190;5.732;2023-02-20T15:17:08;99859.53;;;17.66;47.12
15670;BME280;18524;45.190;5.732;2023-02-20T15:22:40;99856.38;;;17.62;46.80
15670;BME280;18524;45.190;5.732;2023-02-20T15:27:31;99854.78;;;17.52;47.67
15670;BME280;18524;45.190;5.732;2023-02-20T15:32:23;99852.34;;;17.58;46.99
15670;BME280;18524;45.190;5.732;2023-02-20T15:37:27;99858.25;;;17.52;46.92
15670;BME280;18524;45.190;5.732;2023-02-20T15:42:21;99857.88;;;17.47;47.24
15670;BME280;18524;45.190;5.732;2023-02-20T15:47:11;99858.16;;;17.44;47.63
15670;BME280;18524;45.190;5.732;2023-02-20T15:52:04;99850.25;;;17.34;48.28
15670;BME280;18524;45.190;5.732;2023-02-20T15:56:55;99859.13;;;17.43;47.41
15670;BME280;18524;45.190;5.732;2023-02-20T16:01:46;99859.97;;;17.26;47.87
15670;BME280;18524;45.190;5.732;2023-02-20T16:06:37;99850.25;;;17.16;47.81
15670;BME280;18524;45.190;5.732;2023-02-20T16:11:34;99853.97;;;16.96;48.64
15670;BME280;18524;45.190;5.732;2023-02-20T16:16:36;99858.88;;;16.91;49.16
15670;BME280;18524;45.190;5.732;2023-02-20T16:21:27;99854.47;;;16.82;49.23
15670;BME280;18524;45.190;5.732;2023-02-20T16:26:20;99846.50;;;16.82;49.05
15670;BME280;18524;45.190;5.732;2023-02-20T16:31:11;99848.63;;;16.69;49.96
15670;BME280;18524;45.190;5.732;2023-02-20T16:36:02;99850.84;;;16.64;50.07
15670;BME280;18524;45.190;5.732;2023-02-20T16:40:53;99855.50;;;16.52;50.13
15670;BME280;18524;45.190;5.732;2023-02-20T16:45:44;99857.75;;;16.47;50.51
15670;BME280;18524;45.190;5.732;2023-02-20T16:50:34;99842.31;;;16.42;50.66
15670;BME280;18524;45.190;5.732;2023-02-20T17:00:20;99854.47;;;16.16;51.89
15670;BME280;18524;45.190;5.732;2023-02-20T17:05:12;99860.72;;;16.15;52.51
15670;BME280;18524;45.190;5.732;2023-02-20T17:10:04;99856.16;;;16.07;52.29
15670;BME280;18524;45.190;5.732;2023-02-20T17:14:54;99851.44;;;16.01;53.13
15670;BME280;18524;45.190;5.732;2023-02-20T17:19:46;99862.84;;;15.92;53.28
15670;BME280;18524;45.190;5.732;2023-02-20T17:24:41;99864.78;;;15.80;53.71
15670;BME280;18524;45.190;5.732;2023-02-20T17:29:32;99869.81;;;15.74;54.50
15670;BME280;18524;45.190;5.732;2023-02-20T17:34:22;99868.56;;;15.68;54.40
15670;BME280;18524;45.190;5.732;2023-02-20T17:39:14;99877.28;;;15.59;55.65
15670;BME280;18524;45.190;5.732;2023-02-20T17:44:04;99881.69;;;15.49;55.86
15670;BME280;18524;45.190;5.732;2023-02-20T17:48:55;99886.16;;;15.39;56.19
15670;BME280;18524;45.190;5.732;2023-02-20T17:53:45;99891.84;;;15.34;56.83
15670;BME280;18524;45.190;5.732;2023-02-20T17:58:37;99890.13;;;15.23;56.96
15670;BME280;18524;45.190;5.732;2023-02-20T18:03:28;99894.00;;;15.19;57.41
15670;BME280;18524;45.190;5.732;2023-02-20T18:08:18;99902.59;;;15.12;57.87
15670;BME280;18524;45.190;5.732;2023-02-20T18:13:08;99913.16;;;15.02;58.18
15670;BME280;18524;45.190;5.732;2023-02-20T18:18:00;99903.56;;;15.01;58.34
15670;BME280;18524;45.190;5.732;2023-02-20T18:22:50;99909.63;;;14.92;58.67
15670;BME280;18524;45.190;5.732;2023-02-20T18:27:41;99912.34;;;14.81;58.72
15670;BME280;18524;45.190;5.732;2023-02-20T18:32:32;99911.34;;;14.72;59.25
15670;BME280;18524;45.190;5.732;2023-02-20T18:37:22;99907.81;;;14.62;59.86
15670;BME280;18524;45.190;5.732;2023-02-20T18:42:12;99910.44;;;14.62;59.96
15670;BME280;18524;45.190;5.732;2023-02-20T18:47:03;99913.75;;;14.54;60.56
15670;BME280;18524;45.190;5.732;2023-02-20T18:51:53;99914.25;;;14.48;60.58
15670;BME280;18524;45.190;5.732;2023-02-20T18:56:48;99918.22;;;14.43;61.09
15670;BME280;18524;45.190;5.732;2023-02-20T19:01:40;99916.47;;;14.32;61.68
15670;BME280;18524;45.190;5.732;2023-02-20T19:06:33;99920.22;;;14.29;61.88
15670;BME280;18524;45.190;5.732;2023-02-20T19:11:27;99916.53;;;14.21;62.28
15670;BME280;18524;45.190;5.732;2023-02-20T19:16:17;99914.53;;;14.13;62.25
15670;BME280;18524;45.190;5.732;2023-02-20T19:21:09;99911.06;;;14.13;62.49
15670;BME280;18524;45.190;5.732;2023-02-20T19:26:00;99916.63;;;13.98;63.22
15670;BME280;18524;45.190;5.732;2023-02-20T19:30:50;99914.94;;;13.97;63.24
15670;BME280;18524;45.190;5.732;2023-02-20T19:35:40;99915.59;;;13.90;62.97
15670;BME280;18524;45.190;5.732;2023-02-20T19:40:31;99916.94;;;13.84;62.99
15670;BME280;18524;45.190;5.732;2023-02-20T19:45:21;99921.38;;;13.72;62.36
15670;BME280;18524;45.190;5.732;2023-02-20T19:50:13;99916.72;;;13.65;62.62
15670;BME280;18524;45.190;5.732;2023-02-20T19:55:04;99917.81;;;13.62;63.23
15670;BME280;18524;45.190;5.732;2023-02-20T19:59:54;99918.78;;;13.61;64.20
15670;BME280;18524;45.190;5.732;2023-02-20T20:04:44;99914.00;;;13.55;64.59
15670;BME280;18524;45.190;5.732;2023-02-20T20:09:35;99910.94;;;13.39;65.92
15670;BME280;18524;45.190;5.732;2023-02-20T20:14:25;99916.22;;;13.39;65.54
15670;BME280;18524;45.190;5.732;2023-02-20T20:19:16;99915.63;;;13.24;65.96
15670;BME280;18524;45.190;5.732;2023-02-20T20:24:08;99917.53;;;13.22;66.04
15670;BME280;18524;45.190;5.732;2023-02-20T20:29:01;99921.09;;;13.32;65.54
15670;BME280;18524;45.190;5.732;2023-02-20T20:33:53;99915.84;;;13.21;66.39
15670;BME280;18524;45.190;5.732;2023-02-20T20:38:46;99927.59;;;13.17;66.56
15670;BME280;18524;45.190;5.732;2023-02-20T20:43:36;99924.59;;;13.10;66.71
15670;BME280;18524;45.190;5.732;2023-02-20T20:48:29;99926.84;;;13.15;66.07
15670;BME280;18524;45.190;5.732;2023-02-20T20:53:20;99925.63;;;12.97;66.82
15670;BME280;18524;45.190;5.732;2023-02-20T20:58:10;99917.16;;;12.93;67.43
15670;BME280;18524;45.190;5.732;2023-02-20T21:03:03;99916.53;;;12.90;67.20
15670;BME280;18524;45.190;5.732;2023-02-20T21:08:02;99911.03;;;12.81;67.71
15670;BME280;18524;45.190;5.732;2023-02-20T21:12:53;99914.75;;;12.79;67.48
15670;BME280;18524;45.190;5.732;2023-02-20T21:17:43;99909.00;;;12.74;66.73
15670;BME280;18524;45.190;5.732;2023-02-20T21:22:34;99907.41;;;12.60;67.46
15670;BME280;18524;45.190;5.732;2023-02-20T21:27:24;99908.63;;;12.56;67.33
15670;BME280;18524;45.190;5.732;2023-02-20T21:32:15;99904.78;;;12.49;67.75
15670;BME280;18524;45.190;5.732;2023-02-20T21:37:06;99899.28;;;12.52;67.25
15670;BME280;18524;45.190;5.732;2023-02-20T21:41:56;99911.47;;;12.42;67.76
15670;BME280;18524;45.190;5.732;2023-02-20T21:47:08;99903.44;;;12.32;68.18
15670;BME280;18524;45.190;5.732;2023-02-20T21:52:02;99899.50;;;12.27;68.48
15670;BME280;18524;45.190;5.732;2023-02-20T21:56:54;99892.44;;;12.27;68.36
15670;BME280;18524;45.190;5.732;2023-02-20T22:01:44;99895.28;;;12.24;68.67
15670;BME280;18524;45.190;5.732;2023-02-20T22:06:35;99900.28;;;12.16;69.52
15670;BME280;18524;45.190;5.732;2023-02-20T22:11:25;99902.16;;;12.03;69.70
15670;BME280;18524;45.190;5.732;2023-02-20T22:16:34;99893.53;;;12.01;70.30
15670;BME280;18524;45.190;5.732;2023-02-20T22:21:43;99897.59;;;11.94;70.78
15670;BME280;18524;45.190;5.732;2023-02-20T22:26:52;99894.03;;;11.82;71.42
15670;BME280;18524;45.190;5.732;2023-02-20T22:32:01;99887.94;;;11.81;71.75
15670;BME280;18524;45.190;5.732;2023-02-20T22:37:10;99891.28;;;11.59;72.95
15670;BME280;18524;45.190;5.732;2023-02-20T22:42:19;99886.75;;;11.62;73.36
15670;BME280;18524;45.190;5.732;2023-02-20T22:47:29;99885.06;;;11.37;74.51
15670;BME280;18524;45.190;5.732;2023-02-20T22:52:38;99878.06;;;11.24;75.96
15670;BME280;18524;45.190;5.732;2023-02-20T22:57:47;99877.34;;;11.46;74.77
15670;BME280;18524;45.190;5.732;2023-02-20T23:02:56;99878.84;;;11.38;75.47
15670;BME280;18524;45.190;5.732;2023-02-20T23:08:06;99882.22;;;11.40;74.88
15670;BME280;18524;45.190;5.732;2023-02-20T23:13:14;99878.84;;;11.38;75.26
15670;BME280;18524;45.190;5.732;2023-02-20T23:18:23;99865.44;;;11.30;75.04
15670;BME280;18524;45.190;5.732;2023-02-20T23:23:32;99860.97;;;11.19;75.36
15670;BME280;18524;45.190;5.732;2023-02-20T23:28:42;99868.53;;;11.11;76.26
15670;BME280;18524;45.190;5.732;2023-02-20T23:33:51;99861.94;;;11.05;76.12
15670;BME280;18524;45.190;5.732;2023-02-20T23:39:00;99863.44;;;10.96;76.82
15670;BME280;18524;45.190;5.732;2023-02-20T23:44:11;99861.03;;;10.93;77.79
15670;BME280;18524;45.190;5.732;2023-02-20T23:49:20;99870.63;;;10.82;77.88
15670;BME280;18524;45.190;5.732;2023-02-20T23:54:29;99859.47;;;10.65;78.34
15670;BME280;18524;45.190;5.732;2023-02-20T23:59:38;99858.25;;;10.58;78.65
